createdAt,value
2023-05-12T00:00:48.403Z,99.90
2023-05-12T00:03:17.173Z,99.90
2023-05-12T00:05:44.498Z,99.90
2023-05-12T00:08:11.789Z,99.90
2023-05-12T00:10:39.163Z,99.90
2023-05-12T00:13:06.472Z,99.90
2023-05-12T00:15:33.855Z,99.90
2023-05-12T00:18:01.217Z,99.90
2023-05-12T00:20:28.674Z,99.90
2023-05-12T00:22:55.968Z,99.90
2023-05-12T00:25:23.231Z,99.90
2023-05-12T00:27:50.574Z,99.90
2023-05-12T00:30:18.461Z,99.90
2023-05-12T00:32:46.128Z,99.90
2023-05-12T00:35:13.523Z,99.90
2023-05-12T00:37:40.832Z,99.90
2023-05-12T00:40:08.775Z,99.90
2023-05-12T00:42:39.200Z,99.90
2023-05-12T00:45:07.481Z,99.90
2023-05-12T00:47:37.292Z,99.90
2023-05-12T00:50:06.156Z,99.90
2023-05-12T00:52:33.551Z,99.90
2023-05-12T00:55:02.680Z,99.90
2023-05-12T00:57:33.588Z,99.90
2023-05-12T01:00:00.956Z,99.90
2023-05-12T01:02:28.944Z,99.90
2023-05-12T01:04:56.258Z,99.90
2023-05-12T01:07:25.790Z,99.90
2023-05-12T01:09:56.841Z,99.90
2023-05-12T01:12:24.958Z,99.90
2023-05-12T01:14:54.028Z,99.90
2023-05-12T01:17:28.176Z,99.90
2023-05-12T01:20:01.599Z,99.90
2023-05-12T01:22:33.629Z,99.90
2023-05-12T01:25:08.169Z,99.90
2023-05-12T01:27:39.405Z,99.90
2023-05-12T01:30:08.646Z,99.90
2023-05-12T01:32:38.322Z,99.90
2023-05-12T01:35:06.051Z,99.90
2023-05-12T01:37:38.331Z,99.90
2023-05-12T01:40:06.198Z,99.90
2023-05-12T01:42:36.167Z,99.90
2023-05-12T01:45:03.596Z,99.90
2023-05-12T01:47:34.051Z,99.90
2023-05-12T01:50:01.365Z,99.90
2023-05-12T01:52:30.013Z,99.90
2023-05-12T01:54:57.265Z,99.90
2023-05-12T01:57:24.569Z,99.90
2023-05-12T01:59:51.828Z,99.90
2023-05-12T02:02:19.129Z,99.90
2023-05-12T02:04:46.458Z,99.90
2023-05-12T02:07:15.571Z,99.90
2023-05-12T02:09:42.830Z,99.90
2023-05-12T02:12:10.073Z,99.90
2023-05-12T02:14:37.409Z,99.90
2023-05-12T02:17:07.678Z,99.90
2023-05-12T02:19:34.970Z,99.90
2023-05-12T02:22:05.300Z,99.90
2023-05-12T02:24:32.647Z,99.90
2023-05-12T02:26:59.916Z,99.90
2023-05-12T02:29:27.223Z,99.90
2023-05-12T02:31:54.723Z,99.90
2023-05-12T02:34:22.064Z,99.90
2023-05-12T02:36:49.336Z,99.90
2023-05-12T02:39:16.690Z,99.90
2023-05-12T02:41:46.281Z,99.90
2023-05-12T02:44:13.575Z,99.90
2023-05-12T02:46:40.816Z,99.90
2023-05-12T02:49:08.584Z,99.90
2023-05-12T02:51:35.841Z,99.90
2023-05-12T02:54:04.655Z,99.90
2023-05-12T02:56:33.882Z,99.90
2023-05-12T02:59:01.508Z,99.90
2023-05-12T03:01:28.776Z,99.90
2023-05-12T03:03:56.094Z,99.90
2023-05-12T03:06:23.302Z,99.90
2023-05-12T03:08:50.652Z,99.90
2023-05-12T03:11:18.026Z,99.90
2023-05-12T03:13:45.409Z,99.90
2023-05-12T03:16:12.746Z,99.90
2023-05-12T03:18:42.144Z,99.90
2023-05-12T03:21:09.538Z,99.90
2023-05-12T03:23:37.321Z,99.90
2023-05-12T03:26:04.574Z,99.90
2023-05-12T03:28:32.334Z,99.90
2023-05-12T03:30:59.636Z,99.90
2023-05-12T03:33:26.905Z,99.90
2023-05-12T03:35:54.186Z,99.90
2023-05-12T03:38:21.508Z,99.90
2023-05-12T03:40:52.823Z,99.90
2023-05-12T03:43:21.231Z,99.90
2023-05-12T03:45:48.503Z,99.90
2023-05-12T03:48:16.145Z,99.90
2023-05-12T03:50:43.962Z,99.90
2023-05-12T03:53:11.198Z,99.90
2023-05-12T03:55:38.596Z,99.90
2023-05-12T03:58:05.936Z,99.90
2023-05-12T04:00:33.651Z,99.90
2023-05-12T04:03:01.054Z,99.90
2023-05-12T04:05:28.396Z,99.90
2023-05-12T04:07:58.509Z,99.90
2023-05-12T04:10:25.782Z,99.90
2023-05-12T04:12:53.073Z,99.90
2023-05-12T04:15:21.108Z,99.90
2023-05-12T04:17:48.657Z,99.90
2023-05-12T04:20:16.096Z,99.90
2023-05-12T04:22:44.264Z,99.90
2023-05-12T04:25:11.515Z,99.90
2023-05-12T04:27:38.860Z,99.90
2023-05-12T04:30:09.670Z,99.90
2023-05-12T04:32:37.109Z,99.90
2023-05-12T04:35:05.173Z,99.90
2023-05-12T04:37:32.603Z,99.90
2023-05-12T04:39:59.790Z,99.90
2023-05-12T04:42:27.130Z,99.90
2023-05-12T04:44:54.361Z,99.90
2023-05-12T04:47:21.656Z,99.90
2023-05-12T04:49:48.986Z,99.90
2023-05-12T04:52:16.330Z,99.90
2023-05-12T04:54:43.696Z,99.90
2023-05-12T04:57:11.101Z,99.90
2023-05-12T04:59:41.004Z,99.90
2023-05-12T05:02:12.736Z,99.90
2023-05-12T05:04:40.525Z,99.90
2023-05-12T05:07:12.861Z,99.90
2023-05-12T05:09:43.253Z,99.90
2023-05-12T05:12:12.999Z,99.90
2023-05-12T05:14:41.266Z,99.90
2023-05-12T05:17:08.574Z,99.90
2023-05-12T05:19:50.931Z,99.90
2023-05-12T05:22:23.135Z,99.90
2023-05-12T05:24:50.660Z,99.90
2023-05-12T05:27:18.046Z,99.90
2023-05-12T05:29:45.368Z,99.90
2023-05-12T05:32:12.725Z,99.90
2023-05-12T05:34:43.339Z,99.90
2023-05-12T05:37:10.739Z,99.90
2023-05-12T05:39:38.120Z,99.90
2023-05-12T05:42:05.479Z,99.90
2023-05-12T05:44:32.856Z,99.90
2023-05-12T05:47:00.317Z,99.90
2023-05-12T05:49:27.625Z,99.90
2023-05-12T05:51:54.901Z,99.90
2023-05-12T05:54:24.919Z,99.90
2023-05-12T05:56:55.060Z,99.90
2023-05-12T05:59:25.127Z,99.90
2023-05-12T06:01:52.481Z,99.90
2023-05-12T06:04:19.786Z,99.90
2023-05-12T06:06:47.215Z,99.90
2023-05-12T06:09:18.584Z,99.90
2023-05-12T06:11:45.858Z,99.90
2023-05-12T06:14:13.091Z,99.90
2023-05-12T06:16:40.454Z,99.90
2023-05-12T06:19:11.858Z,99.90
2023-05-12T06:21:39.187Z,99.90
2023-05-12T06:24:06.568Z,99.90
2023-05-12T06:26:33.835Z,99.90
2023-05-12T06:29:01.109Z,99.90
2023-05-12T06:31:28.433Z,99.90
2023-05-12T06:33:55.708Z,99.90
2023-05-12T06:36:23.053Z,99.90
2023-05-12T06:38:51.013Z,99.90
2023-05-12T06:41:18.342Z,99.90
2023-05-12T06:43:49.163Z,99.90
2023-05-12T06:46:16.511Z,99.90
2023-05-12T06:48:44.133Z,99.90
2023-05-12T06:51:11.558Z,99.90
2023-05-12T06:53:40.229Z,99.90
2023-05-12T06:56:07.823Z,99.90
2023-05-12T06:58:35.184Z,99.90
2023-05-12T07:01:02.554Z,99.90
2023-05-12T07:03:32.731Z,99.90
2023-05-12T07:06:00.404Z,99.90
2023-05-12T07:08:27.811Z,99.90
2023-05-12T07:10:55.158Z,99.90
2023-05-12T07:13:23.928Z,99.90
2023-05-12T07:15:51.209Z,99.90
2023-05-12T07:18:18.512Z,99.90
2023-05-12T07:20:46.524Z,99.90
2023-05-12T07:23:13.891Z,99.90
2023-05-12T07:25:41.216Z,99.90
2023-05-12T07:28:08.564Z,99.90
2023-05-12T07:30:36.356Z,99.90
2023-05-12T07:33:04.539Z,99.90
2023-05-12T07:35:32.186Z,99.90
2023-05-12T07:37:59.512Z,99.90
2023-05-12T07:40:26.812Z,99.90
2023-05-12T07:42:54.173Z,99.90
2023-05-12T07:45:25.356Z,99.90
2023-05-12T07:47:52.697Z,99.90
2023-05-12T07:50:20.769Z,99.90
2023-05-12T07:52:51.115Z,99.90
2023-05-12T07:55:23.233Z,99.90
2023-05-12T07:57:50.911Z,99.90
2023-05-12T08:00:19.553Z,99.90
2023-05-12T08:02:47.211Z,99.90
2023-05-12T08:05:15.190Z,99.90
2023-05-12T08:07:43.821Z,99.90
2023-05-12T08:10:12.983Z,99.90
2023-05-12T08:12:41.405Z,99.90
2023-05-12T08:15:11.023Z,99.90
2023-05-12T08:17:41.090Z,99.90
2023-05-12T08:20:09.089Z,99.90
2023-05-12T08:22:36.712Z,99.90
2023-05-12T08:25:06.919Z,99.90
2023-05-12T08:27:35.889Z,99.90
2023-05-12T08:30:03.443Z,99.90
2023-05-12T08:32:31.028Z,99.90
2023-05-12T08:35:00.873Z,99.90
2023-05-12T08:37:28.322Z,99.90
2023-05-12T08:39:56.527Z,99.90
2023-05-12T08:42:44.552Z,99.90
2023-05-12T08:45:14.265Z,99.90
2023-05-12T08:47:46.048Z,92.20
2023-05-12T08:50:15.723Z,56.80
2023-05-12T08:52:44.612Z,80.50
2023-05-12T08:55:17.721Z,46.40
2023-05-12T08:57:48.266Z,23.00
2023-05-12T09:00:19.926Z,22.00
2023-05-12T09:02:54.041Z,34.00
2023-05-12T09:05:24.244Z,47.10
2023-05-12T09:07:54.128Z,93.50
2023-05-12T09:10:34.476Z,99.30
2023-05-12T09:13:29.029Z,99.60
2023-05-12T09:15:59.674Z,93.80
2023-05-12T09:18:39.053Z,99.90
2023-05-12T09:21:07.195Z,99.90
2023-05-12T09:23:34.454Z,99.90
2023-05-12T09:26:01.874Z,99.90
2023-05-12T09:28:36.735Z,99.90
2023-05-12T09:31:19.581Z,94.30
2023-05-12T09:33:47.301Z,99.90
2023-05-12T09:36:19.220Z,81.00
2023-05-12T09:38:46.689Z,59.80
2023-05-12T09:41:22.170Z,36.00
2023-05-12T09:43:52.228Z,26.30
2023-05-12T09:46:19.637Z,31.20
2023-05-12T09:48:48.215Z,30.80
2023-05-12T09:51:18.658Z,12.10
2023-05-12T09:53:46.911Z,1.00
2023-05-12T09:56:15.450Z,1.00
2023-05-12T09:58:45.094Z,1.00
2023-05-12T10:01:23.356Z,1.00
2023-05-12T10:03:54.655Z,1.00
2023-05-12T10:06:30.961Z,1.00
2023-05-12T10:09:26.891Z,1.00
2023-05-12T10:11:54.527Z,1.00
2023-05-12T10:14:22.890Z,1.00
2023-05-12T10:16:54.212Z,1.00
2023-05-12T10:19:22.606Z,1.00
2023-05-12T10:21:50.631Z,1.00
2023-05-12T10:24:18.021Z,1.00
2023-05-12T10:26:45.318Z,1.00
2023-05-12T10:29:13.550Z,1.00
2023-05-12T10:31:41.225Z,1.00
2023-05-12T10:34:19.198Z,18.80
2023-05-12T10:36:49.200Z,99.90
2023-05-12T10:39:16.891Z,99.90
2023-05-12T10:41:44.371Z,99.90
2023-05-12T10:44:12.135Z,17.60
2023-05-12T10:46:45.351Z,99.90
2023-05-12T10:49:15.468Z,99.90
2023-05-12T10:51:43.115Z,1.00
2023-05-12T10:54:12.699Z,1.00
2023-05-12T10:56:40.338Z,99.90
2023-05-12T10:59:09.283Z,1.00
2023-05-12T11:01:37.725Z,1.00
2023-05-12T11:04:17.141Z,1.00
2023-05-12T11:06:46.759Z,1.00
2023-05-12T11:09:15.433Z,1.00
2023-05-12T11:11:45.657Z,3.30
2023-05-12T11:14:13.708Z,7.50
2023-05-12T11:16:45.248Z,18.50
2023-05-12T11:19:13.287Z,25.00
2023-05-12T11:21:44.029Z,1.00
2023-05-12T11:24:14.624Z,1.00
2023-05-12T11:26:42.080Z,1.00
2023-05-12T11:29:09.496Z,1.00
2023-05-12T11:31:42.744Z,29.70
2023-05-12T11:34:13.733Z,68.90
2023-05-12T11:36:43.106Z,53.70
2023-05-12T11:39:21.164Z,29.30
2023-05-12T11:41:51.364Z,1.00
2023-05-12T11:44:26.377Z,1.00
2023-05-12T11:46:56.647Z,1.00
2023-05-12T11:49:29.391Z,1.00
2023-05-12T11:52:02.511Z,1.00
2023-05-12T11:54:30.664Z,1.00
2023-05-12T11:56:58.417Z,1.00
2023-05-12T11:59:33.538Z,1.00
2023-05-12T12:02:02.925Z,1.00
2023-05-12T12:04:33.645Z,1.00
2023-05-12T12:07:10.629Z,1.00
2023-05-12T12:09:43.075Z,1.00
2023-05-12T12:12:11.621Z,1.00
2023-05-12T12:14:44.060Z,1.00
2023-05-12T12:17:14.438Z,99.90
2023-05-12T12:19:44.885Z,99.90
2023-05-12T12:22:12.161Z,1.00
2023-05-12T12:24:39.529Z,1.00
2023-05-12T12:27:09.746Z,62.80
2023-05-12T12:29:37.066Z,1.00
2023-05-12T12:32:05.527Z,1.00
2023-05-12T12:34:33.382Z,99.90
2023-05-12T12:37:00.750Z,1.00
2023-05-12T12:39:28.102Z,1.00
2023-05-12T12:41:55.391Z,99.90
2023-05-12T12:44:22.694Z,99.90
2023-05-12T12:46:50.045Z,1.00
2023-05-12T12:49:17.442Z,1.00
2023-05-12T12:51:46.596Z,1.00
2023-05-12T12:54:17.339Z,1.00
2023-05-12T12:56:44.753Z,1.00
2023-05-12T12:59:12.062Z,1.00
2023-05-12T13:01:39.587Z,1.00
2023-05-12T13:04:06.893Z,1.00
2023-05-12T13:06:34.671Z,1.00
2023-05-12T13:09:02.199Z,1.00
2023-05-12T13:11:29.634Z,1.00
2023-05-12T13:13:59.780Z,1.00
2023-05-12T13:16:27.163Z,1.00
2023-05-12T13:18:54.529Z,1.00
2023-05-12T13:21:22.084Z,1.00
2023-05-12T13:23:49.392Z,1.00
2023-05-12T13:26:16.650Z,1.00
2023-05-12T13:28:44.064Z,1.00
2023-05-12T13:31:11.794Z,1.00
2023-05-12T13:33:39.316Z,1.00
2023-05-12T13:36:07.134Z,1.00
2023-05-12T13:38:34.571Z,1.00
2023-05-12T13:41:02.277Z,1.00
2023-05-12T13:43:32.171Z,1.00
2023-05-12T13:45:59.482Z,1.00
2023-05-12T13:48:26.961Z,1.00
2023-05-12T13:50:54.618Z,1.00
2023-05-12T13:53:21.995Z,1.00
2023-05-12T13:55:49.370Z,1.00
2023-05-12T13:58:16.690Z,1.00
2023-05-12T14:00:44.025Z,1.00
2023-05-12T14:03:11.318Z,1.00
2023-05-12T14:05:38.766Z,1.00
2023-05-12T14:08:06.256Z,1.00
2023-05-12T14:10:35.394Z,1.00
2023-05-12T14:13:02.735Z,1.00
2023-05-12T14:15:44.207Z,1.00
2023-05-12T14:18:15.107Z,1.00
2023-05-12T14:20:42.523Z,1.00
2023-05-12T14:23:09.792Z,1.00
2023-05-12T14:25:40.944Z,1.00
2023-05-12T14:28:11.668Z,1.00
2023-05-12T14:30:43.437Z,1.00
2023-05-12T14:33:11.339Z,1.00
2023-05-12T14:35:38.591Z,1.00
2023-05-12T14:38:05.878Z,1.00
2023-05-12T14:40:33.217Z,1.00
2023-05-12T14:43:00.499Z,1.00
2023-05-12T14:45:28.359Z,99.90
2023-05-12T14:47:55.772Z,99.90
2023-05-12T14:50:23.978Z,1.00
2023-05-12T14:52:51.298Z,99.90
2023-05-12T14:55:19.025Z,99.90
2023-05-12T14:57:47.836Z,1.00
2023-05-12T15:00:16.005Z,99.90
2023-05-12T15:02:44.519Z,1.00
2023-05-12T15:05:13.449Z,1.00
2023-05-12T15:07:41.255Z,99.90
2023-05-12T15:10:08.888Z,1.00
2023-05-12T15:12:36.181Z,99.90
2023-05-12T15:15:06.749Z,1.00
2023-05-12T15:17:34.447Z,99.90
2023-05-12T15:20:02.033Z,1.00
2023-05-12T15:22:31.621Z,99.90
2023-05-12T15:24:59.474Z,1.00
2023-05-12T15:27:26.987Z,1.00
2023-05-12T15:29:54.334Z,1.00
2023-05-12T15:32:21.808Z,1.00
2023-05-12T15:34:49.158Z,99.90
2023-05-12T15:37:16.580Z,99.90
2023-05-12T15:39:47.458Z,1.00
2023-05-12T15:42:22.275Z,99.90
2023-05-12T15:44:53.747Z,99.90
2023-05-12T15:47:21.022Z,1.00
2023-05-12T15:49:52.124Z,1.00
2023-05-12T15:52:19.350Z,99.90
2023-05-12T15:54:46.846Z,1.00
2023-05-12T15:57:14.195Z,99.90
2023-05-12T15:59:41.437Z,1.00
2023-05-12T16:02:08.826Z,99.90
2023-05-12T16:04:36.658Z,1.00
2023-05-12T16:07:04.091Z,99.90
2023-05-12T16:09:31.770Z,90.70
2023-05-12T16:11:59.098Z,1.00
2023-05-12T16:14:26.480Z,1.00
2023-05-12T16:16:53.828Z,1.00
2023-05-12T16:19:23.547Z,1.00
2023-05-12T16:21:50.917Z,1.00
2023-05-12T16:24:18.184Z,1.00
2023-05-12T16:26:45.684Z,1.00
2023-05-12T16:29:13.737Z,1.00
2023-05-12T16:31:41.038Z,1.00
2023-05-12T16:34:14.726Z,1.00
2023-05-12T16:36:42.012Z,99.90
2023-05-12T16:39:09.348Z,99.90
2023-05-12T16:41:36.565Z,99.90
2023-05-12T16:44:04.305Z,99.90
2023-05-12T16:46:32.740Z,1.00
2023-05-12T16:49:02.758Z,1.00
2023-05-12T16:51:33.717Z,99.90
2023-05-12T16:54:01.386Z,1.00
2023-05-12T16:56:28.696Z,99.90
2023-05-12T16:58:56.261Z,1.00
2023-05-12T17:01:23.620Z,99.90
2023-05-12T17:03:51.013Z,99.90
2023-05-12T17:06:18.454Z,1.00
2023-05-12T17:08:47.350Z,1.00
2023-05-12T17:11:14.698Z,1.00
2023-05-12T17:13:42.052Z,1.00
2023-05-12T17:16:09.444Z,1.00
2023-05-12T17:19:13.720Z,99.90
2023-05-12T17:21:24.034Z,99.90
2023-05-12T17:23:51.389Z,2.90
2023-05-12T17:26:18.679Z,1.00
2023-05-12T17:28:46.987Z,99.90
2023-05-12T17:31:16.973Z,1.00
2023-05-12T17:33:44.358Z,99.90
2023-05-12T17:36:14.318Z,1.00
2023-05-12T17:38:41.652Z,1.00
2023-05-12T17:41:14.300Z,99.90
2023-05-12T17:43:41.699Z,1.00
2023-05-12T17:46:09.163Z,99.90
2023-05-12T17:48:38.310Z,1.00
2023-05-12T17:51:06.086Z,1.00
2023-05-12T17:53:33.800Z,1.00
2023-05-12T17:56:02.201Z,1.00
2023-05-12T17:58:29.514Z,1.00
2023-05-12T18:00:57.163Z,1.00
2023-05-12T18:03:24.686Z,35.50
2023-05-12T18:05:53.438Z,99.90
2023-05-12T18:08:21.728Z,99.90
2023-05-12T18:10:49.117Z,99.90
2023-05-12T18:13:16.465Z,99.90
2023-05-12T18:15:43.791Z,1.00
2023-05-12T18:18:11.326Z,1.00
2023-05-12T18:20:38.764Z,1.00
2023-05-12T18:23:06.078Z,1.00
2023-05-12T18:25:33.277Z,1.00
2023-05-12T18:28:00.748Z,1.00
2023-05-12T18:30:28.006Z,1.00
2023-05-12T18:32:55.332Z,1.00
2023-05-12T18:35:23.094Z,1.00
2023-05-12T18:37:50.711Z,1.00
2023-05-12T18:40:19.996Z,1.00
2023-05-12T18:42:47.349Z,1.00
2023-05-12T18:45:14.607Z,1.00
2023-05-12T18:47:42.152Z,1.00
2023-05-12T18:50:10.018Z,1.00
2023-05-12T18:52:37.402Z,1.00
2023-05-12T18:55:05.292Z,1.00
2023-05-12T18:57:32.949Z,1.00
2023-05-12T19:00:00.402Z,1.00
2023-05-12T19:02:27.864Z,1.00
2023-05-12T19:04:55.717Z,1.00
2023-05-12T19:07:26.072Z,1.00
2023-05-12T19:09:53.627Z,1.00
2023-05-12T19:12:20.966Z,1.00
2023-05-12T19:14:48.206Z,1.00
2023-05-12T19:17:15.863Z,1.00
2023-05-12T19:19:43.170Z,1.00
2023-05-12T19:22:10.505Z,1.00
2023-05-12T19:24:40.192Z,1.00
2023-05-12T19:27:08.139Z,1.00
2023-05-12T19:29:36.623Z,1.00
2023-05-12T19:32:07.439Z,1.00
2023-05-12T19:34:35.070Z,1.00
2023-05-12T19:37:05.878Z,1.00
2023-05-12T19:39:33.116Z,1.00
2023-05-12T19:42:00.655Z,1.00
2023-05-12T19:44:30.913Z,1.00
2023-05-12T19:47:04.715Z,1.00
2023-05-12T19:49:34.157Z,1.00
2023-05-12T19:52:02.649Z,1.00
2023-05-12T19:54:29.937Z,1.00
2023-05-12T19:56:57.371Z,1.00
2023-05-12T19:59:24.811Z,1.00
2023-05-12T20:01:53.310Z,1.00
2023-05-12T20:04:20.623Z,1.00
2023-05-12T20:06:47.931Z,1.00
2023-05-12T20:09:15.283Z,1.00
2023-05-12T20:11:42.546Z,11.80
2023-05-12T20:14:09.825Z,19.20
2023-05-12T20:16:39.995Z,25.70
2023-05-12T20:19:07.355Z,32.20
2023-05-12T20:21:34.681Z,39.80
2023-05-12T20:24:01.958Z,45.30
2023-05-12T20:26:30.582Z,73.60
2023-05-12T20:28:59.412Z,88.50
2023-05-12T20:31:27.395Z,93.30
2023-05-12T20:33:55.260Z,99.90
2023-05-12T20:36:22.577Z,99.90
2023-05-12T20:38:49.809Z,99.90
2023-05-12T20:41:17.124Z,99.90
2023-05-12T20:43:45.779Z,99.90
2023-05-12T20:46:13.399Z,99.90
2023-05-12T20:48:40.756Z,99.90
2023-05-12T20:51:12.404Z,99.90
2023-05-12T20:53:39.861Z,99.90
2023-05-12T20:56:08.334Z,99.90
2023-05-12T20:58:36.518Z,99.90
2023-05-12T21:01:04.271Z,99.90
2023-05-12T21:03:35.995Z,99.90
2023-05-12T21:06:05.492Z,99.90
2023-05-12T21:08:32.760Z,99.90
2023-05-12T21:11:00.095Z,99.90
2023-05-12T21:13:27.731Z,99.90
2023-05-12T21:15:55.029Z,99.90
2023-05-12T21:18:23.177Z,99.90
2023-05-12T21:20:50.692Z,99.90
2023-05-12T21:23:18.321Z,99.90
2023-05-12T21:25:45.621Z,99.90
2023-05-12T21:28:15.371Z,99.90
2023-05-12T21:30:42.798Z,99.90
2023-05-12T21:33:10.119Z,99.90
2023-05-12T21:35:37.426Z,99.90
2023-05-12T21:38:07.194Z,99.90
2023-05-12T21:40:36.857Z,99.90
2023-05-12T21:43:04.469Z,99.90
2023-05-12T21:45:32.100Z,99.90
2023-05-12T21:47:59.370Z,99.90
2023-05-12T21:50:26.719Z,99.90
2023-05-12T21:52:54.004Z,99.90
2023-05-12T21:55:24.222Z,99.90
2023-05-12T21:57:51.593Z,99.90
2023-05-12T22:00:20.330Z,99.90
2023-05-12T22:02:47.964Z,99.90
2023-05-12T22:05:15.438Z,99.90
2023-05-12T22:07:42.648Z,99.90
2023-05-12T22:10:09.999Z,99.90
2023-05-12T22:12:37.551Z,99.90
2023-05-12T22:15:05.296Z,99.90
2023-05-12T22:17:32.597Z,99.90
2023-05-12T22:20:00.204Z,99.90
2023-05-12T22:22:27.494Z,99.90
2023-05-12T22:24:55.832Z,99.90
2023-05-12T22:27:23.244Z,99.90
2023-05-12T22:29:53.002Z,99.90
2023-05-12T22:32:20.351Z,99.90
2023-05-12T22:34:47.649Z,99.90
2023-05-12T22:37:14.903Z,99.90
2023-05-12T22:39:42.158Z,99.90
2023-05-12T22:42:09.434Z,99.90
2023-05-12T22:44:38.353Z,99.90
2023-05-12T22:47:06.614Z,99.90
2023-05-12T22:49:33.999Z,99.90
2023-05-12T22:52:02.294Z,99.90
2023-05-12T22:54:29.652Z,99.90
2023-05-12T22:56:56.937Z,99.90
2023-05-12T22:59:24.228Z,99.90
2023-05-12T23:01:51.498Z,99.90
2023-05-12T23:04:19.093Z,99.90
2023-05-12T23:06:47.065Z,99.90
2023-05-12T23:09:14.588Z,99.90
2023-05-12T23:11:45.350Z,99.90
2023-05-12T23:14:12.698Z,99.90
2023-05-12T23:16:40.094Z,99.90
2023-05-12T23:19:07.466Z,99.90
2023-05-12T23:21:34.816Z,99.90
2023-05-12T23:24:02.084Z,99.90
2023-05-12T23:26:29.308Z,99.90
2023-05-12T23:28:56.618Z,99.90
2023-05-12T23:31:23.867Z,99.90
2023-05-12T23:33:57.145Z,99.90
2023-05-12T23:36:24.589Z,99.90
2023-05-12T23:38:54.424Z,99.90
2023-05-12T23:41:25.596Z,99.90
2023-05-12T23:43:56.307Z,99.90
2023-05-12T23:46:26.462Z,99.90
2023-05-12T23:49:00.130Z,99.90
2023-05-12T23:51:30.005Z,99.90
2023-05-12T23:53:57.503Z,99.90
2023-05-12T23:56:32.433Z,99.90
2023-05-12T23:58:59.779Z,99.90
